createdAt,value
2019-04-20T00:00:39.956Z,45.00
2019-04-20T00:01:19.967Z,46.28
2019-04-20T00:01:48.528Z,39.15
2019-04-20T00:02:29.665Z,44.05
2019-04-20T00:03:03.564Z,44.30
2019-04-20T00:03:41.710Z,42.40
2019-04-20T00:04:19.413Z,47.43
2019-04-20T00:04:47.315Z,40.03
2019-04-20T00:05:21.201Z,44.33
2019-04-20T00:05:55.213Z,44.05
2019-04-20T00:06:31.730Z,45.70
2019-04-20T00:07:04.064Z,42.60
2019-04-20T00:07:37.680Z,46.20
2019-04-20T00:08:16.716Z,39.40
2019-04-20T00:08:47.482Z,47.45
2019-04-20T00:09:25.759Z,47.35
2019-04-20T00:10:04.512Z,41.70
2019-04-20T00:10:44.758Z,51.90
2019-04-20T00:11:15.634Z,45.25
2019-04-20T00:11:53.463Z,43.95
2019-04-20T00:12:25.252Z,47.65
2019-04-20T00:13:05.913Z,51.58
2019-04-20T00:13:38.417Z,45.40
2019-04-20T00:14:09.058Z,49.73
2019-04-20T00:14:38.801Z,42.90
2019-04-20T00:15:13.116Z,41.08
2019-04-20T00:15:47.237Z,49.00
2019-04-20T00:16:21.078Z,43.25
2019-04-20T00:16:54.836Z,43.35
2019-04-20T00:17:28.762Z,48.87
2019-04-20T00:18:06.286Z,44.30
2019-04-20T00:18:43.840Z,39.75
2019-04-20T00:19:15.343Z,44.80
2019-04-20T00:19:51.084Z,41.37
2019-04-20T00:20:29.008Z,44.00
2019-04-20T00:21:03.860Z,36.65
2019-04-20T00:21:52.663Z,38.53
2019-04-20T00:22:24.579Z,37.58
2019-04-20T00:22:59.764Z,34.53
2019-04-20T00:23:40.073Z,38.17
2019-04-20T00:24:33.885Z,38.73
2019-04-20T00:25:20.395Z,35.30
2019-04-20T00:26:17.327Z,38.45
2019-04-20T00:27:11.725Z,37.35
2019-04-20T00:27:43.305Z,40.85
2019-04-20T00:28:24.146Z,40.90
2019-04-20T00:29:00.195Z,45.40
2019-04-20T00:29:35.483Z,45.50
2019-04-20T00:30:06.741Z,46.10
2019-04-20T00:30:48.112Z,43.23
2019-04-20T00:31:19.031Z,40.83
2019-04-20T00:31:48.950Z,40.73
2019-04-20T00:32:23.217Z,42.48
2019-04-20T00:32:58.520Z,41.58
2019-04-20T00:33:37.334Z,44.63
2019-04-20T00:34:07.992Z,44.53
2019-04-20T00:34:38.480Z,37.28
2019-04-20T00:35:08.589Z,40.65
2019-04-20T00:35:42.158Z,40.67
2019-04-20T00:36:16.099Z,44.70
2019-04-20T00:36:49.872Z,40.35
2019-04-20T00:37:23.410Z,42.15
2019-04-20T00:37:57.117Z,40.60
2019-04-20T00:38:37.635Z,37.95
2019-04-20T00:39:10.870Z,39.73
2019-04-20T00:39:42.707Z,43.17
2019-04-20T00:40:17.117Z,43.28
2019-04-20T00:40:58.480Z,38.60
2019-04-20T00:41:25.891Z,41.65
2019-04-20T00:42:05.656Z,43.68
2019-04-20T00:42:42.222Z,45.28
2019-04-20T00:43:13.286Z,44.20
2019-04-20T00:43:45.599Z,44.95
2019-04-20T00:44:27.315Z,50.15
2019-04-20T00:45:03.350Z,43.20
2019-04-20T00:45:33.211Z,52.83
2019-04-20T00:46:09.172Z,47.17
2019-04-20T00:46:51.288Z,48.58
2019-04-20T00:47:30.997Z,46.50
2019-04-20T00:47:59.522Z,52.08
2019-04-20T00:48:40.444Z,55.52
2019-04-20T00:49:15.214Z,56.00
2019-04-20T00:49:50.943Z,58.00
2019-04-20T00:50:28.452Z,56.53
2019-04-20T00:50:59.314Z,58.48
2019-04-20T00:51:35.390Z,60.85
2019-04-20T00:52:23.774Z,60.80
2019-04-20T00:52:47.120Z,55.20
2019-04-20T00:53:19.427Z,55.00
2019-04-20T00:53:47.962Z,55.92
2019-04-20T00:54:16.303Z,53.60
2019-04-20T00:54:49.721Z,54.58
2019-04-20T00:55:23.240Z,52.73
2019-04-20T00:55:57.123Z,52.25
2019-04-20T00:56:31.006Z,51.10
2019-04-20T00:57:13.267Z,54.55
2019-04-20T00:57:47.698Z,48.80
2019-04-20T00:58:20.104Z,48.90
2019-04-20T00:59:03.057Z,46.20
2019-04-20T00:59:36.960Z,47.15
2019-04-20T01:00:17.582Z,41.18
2019-04-20T01:01:00.429Z,43.80
2019-04-20T01:01:33.038Z,45.45
2019-04-20T01:02:04.032Z,40.83
2019-04-20T01:02:33.295Z,42.65
2019-04-20T01:03:09.586Z,42.20
2019-04-20T01:03:43.236Z,46.92
2019-04-20T01:04:23.833Z,45.60
2019-04-20T01:04:58.572Z,48.33
2019-04-20T01:05:35.379Z,45.20
2019-04-20T01:06:20.644Z,61.20
2019-04-20T01:06:53.550Z,58.70
2019-04-20T01:07:31.165Z,40.20
2019-04-20T01:08:12.986Z,44.23
2019-04-20T01:08:48.486Z,41.80
2019-04-20T01:09:24.628Z,46.42
2019-04-20T01:10:13.190Z,37.67
2019-04-20T01:10:52.346Z,42.95
2019-04-20T01:11:30.102Z,34.23
2019-04-20T01:11:58.577Z,37.60
2019-04-20T01:12:35.005Z,38.63
2019-04-20T01:13:13.987Z,40.10
2019-04-20T01:13:50.481Z,37.13
2019-04-20T01:14:26.099Z,39.20
2019-04-20T01:14:58.528Z,47.08
2019-04-20T01:15:38.741Z,40.48
2019-04-20T01:16:09.409Z,38.83
2019-04-20T01:16:45.202Z,45.95
2019-04-20T01:17:13.443Z,38.15
2019-04-20T01:17:46.966Z,42.48
2019-04-20T01:18:20.402Z,41.70
2019-04-20T01:18:53.799Z,38.48
2019-04-20T01:19:27.220Z,41.95
2019-04-20T01:20:00.628Z,40.60
2019-04-20T01:20:34.065Z,40.73
2019-04-20T01:21:14.081Z,42.80
2019-04-20T01:21:49.826Z,33.98
2019-04-20T01:22:21.882Z,37.35
2019-04-20T01:23:00.196Z,31.10
2019-04-20T01:23:35.543Z,32.25
2019-04-20T01:24:06.293Z,36.25
2019-04-20T01:24:43.281Z,35.38
2019-04-20T01:25:18.132Z,34.98
2019-04-20T01:25:56.813Z,38.23
2019-04-20T01:26:24.889Z,34.88
2019-04-20T01:27:01.895Z,38.55
2019-04-20T01:27:50.162Z,36.75
2019-04-20T01:28:27.814Z,42.27
2019-04-20T01:28:54.185Z,38.90
2019-04-20T01:29:29.103Z,43.40
2019-04-20T01:30:05.889Z,36.45
2019-04-20T01:30:36.181Z,40.50
2019-04-20T01:31:15.694Z,39.23
2019-04-20T01:31:55.721Z,37.58
2019-04-20T01:32:23.364Z,35.00
2019-04-20T01:33:06.218Z,42.25
2019-04-20T01:33:37.302Z,40.25
2019-04-20T01:34:08.282Z,41.42
2019-04-20T01:34:47.461Z,41.15
2019-04-20T01:35:27.215Z,40.28
2019-04-20T01:36:00.152Z,42.13
2019-04-20T01:36:36.951Z,34.70
2019-04-20T01:37:09.286Z,35.15
2019-04-20T01:37:39.487Z,39.33
2019-04-20T01:38:22.465Z,39.85
2019-04-20T01:38:52.266Z,34.27
2019-04-20T01:39:23.978Z,35.98
2019-04-20T01:39:54.166Z,38.13
2019-04-20T01:40:25.426Z,37.80
2019-04-20T01:40:59.162Z,42.38
2019-04-20T01:41:32.981Z,48.85
2019-04-20T01:42:06.747Z,39.63
2019-04-20T01:42:40.377Z,37.35
2019-04-20T01:43:14.264Z,39.95
2019-04-20T01:43:48.105Z,41.77
2019-04-20T01:44:26.152Z,40.20
2019-04-20T01:44:57.374Z,36.45
2019-04-20T01:45:36.064Z,39.25
2019-04-20T01:46:13.324Z,39.85
2019-04-20T01:46:46.603Z,39.55
2019-04-20T01:47:17.160Z,41.60
2019-04-20T01:47:54.114Z,43.20
2019-04-20T01:48:30.517Z,47.50
2019-04-20T01:49:07.937Z,47.13
2019-04-20T01:49:37.433Z,45.48
2019-04-20T01:50:18.651Z,39.42
2019-04-20T01:50:55.013Z,43.85
2019-04-20T01:51:27.216Z,43.08
2019-04-20T01:52:09.697Z,44.18
2019-04-20T01:52:46.843Z,41.73
2019-04-20T01:53:18.983Z,44.77
2019-04-20T01:54:08.272Z,45.55
2019-04-20T01:54:38.719Z,44.53
2019-04-20T01:55:23.008Z,45.10
2019-04-20T01:55:58.647Z,41.18
2019-04-20T01:56:33.907Z,43.92
2019-04-20T01:57:01.714Z,44.85
2019-04-20T01:57:52.896Z,46.15
2019-04-20T01:58:55.300Z,42.17
2019-04-20T01:59:20.061Z,49.70
2019-04-20T01:59:52.271Z,45.95
2019-04-20T02:00:38.292Z,43.85
2019-04-20T02:01:17.795Z,47.70
2019-04-20T02:01:55.754Z,42.88
2019-04-20T02:02:28.208Z,48.45
2019-04-20T02:03:24.030Z,44.08
2019-04-20T02:03:58.529Z,39.13
2019-04-20T02:04:38.625Z,41.68
2019-04-20T02:05:17.057Z,50.65
2019-04-20T02:05:53.075Z,47.55
2019-04-20T02:06:23.875Z,45.35
2019-04-20T02:06:59.679Z,47.00
2019-04-20T02:07:39.800Z,45.05
2019-04-20T02:08:13.870Z,49.30
2019-04-20T02:08:42.169Z,40.95
2019-04-20T02:09:20.710Z,45.63
2019-04-20T02:09:56.850Z,44.67
2019-04-20T02:10:33.274Z,46.63
2019-04-20T02:11:04.347Z,51.40
2019-04-20T02:11:41.003Z,51.40
2019-04-20T02:12:18.230Z,46.33
2019-04-20T02:12:50.342Z,48.02
2019-04-20T02:13:21.557Z,51.63
2019-04-20T02:13:58.809Z,45.33
2019-04-20T02:14:38.801Z,51.33
2019-04-20T02:15:13.062Z,42.85
2019-04-20T02:15:47.990Z,46.37
2019-04-20T02:16:26.462Z,49.10
2019-04-20T02:17:02.993Z,52.70
2019-04-20T02:17:35.242Z,47.13
2019-04-20T02:18:15.008Z,51.50
2019-04-20T02:18:56.760Z,51.42
2019-04-20T02:19:28.992Z,52.40
2019-04-20T02:20:04.512Z,51.15
2019-04-20T02:20:40.159Z,49.18
2019-04-20T02:21:16.577Z,45.17
2019-04-20T02:21:47.705Z,49.35
2019-04-20T02:22:23.097Z,48.87
2019-04-20T02:22:56.927Z,48.78
2019-04-20T02:23:28.192Z,49.18
2019-04-20T02:23:57.767Z,56.42
2019-04-20T02:24:27.945Z,49.90
2019-04-20T02:25:01.756Z,59.05
2019-04-20T02:25:35.705Z,46.10
2019-04-20T02:26:09.336Z,54.27
2019-04-20T02:26:43.061Z,50.73
2019-04-20T02:27:20.602Z,47.88
2019-04-20T02:27:56.941Z,49.67
2019-04-20T02:28:56.863Z,47.23
2019-04-20T02:29:24.618Z,52.00
2019-04-20T02:29:58.219Z,39.92
2019-04-20T02:30:53.926Z,39.75
2019-04-20T02:31:25.152Z,38.25
2019-04-20T02:32:05.022Z,44.25
2019-04-20T02:33:16.755Z,43.40
2019-04-20T02:33:54.314Z,39.78
2019-04-20T02:34:39.905Z,40.52
2019-04-20T02:35:16.815Z,37.85
2019-04-20T02:36:01.521Z,44.00
2019-04-20T02:36:47.954Z,44.55
2019-04-20T02:39:05.885Z,40.05
2019-04-20T02:39:28.716Z,41.20
2019-04-20T02:40:38.985Z,42.45
2019-04-20T02:41:47.617Z,43.55
2019-04-20T02:42:17.865Z,39.88
2019-04-20T02:43:02.002Z,44.15
2019-04-20T02:43:41.938Z,42.98
2019-04-20T02:44:41.952Z,48.05
2019-04-20T02:45:20.451Z,51.37
2019-04-20T02:45:47.181Z,45.25
2019-04-20T02:46:28.502Z,46.08
2019-04-20T02:47:07.561Z,46.80
2019-04-20T02:47:40.336Z,49.63
2019-04-20T02:48:45.245Z,48.70
2019-04-20T02:49:35.954Z,47.40
2019-04-20T02:50:09.119Z,49.35
2019-04-20T02:50:30.158Z,48.15
2019-04-20T02:51:01.094Z,46.90
2019-04-20T02:51:40.947Z,46.30
2019-04-20T02:52:13.470Z,45.43
2019-04-20T02:53:43.325Z,48.33
2019-04-20T02:54:15.195Z,45.10
2019-04-20T02:54:28.495Z,51.02
2019-04-20T02:55:09.406Z,47.45
2019-04-20T02:55:53.537Z,47.25
2019-04-20T02:56:22.775Z,48.73
2019-04-20T02:56:57.440Z,45.60
2019-04-20T02:57:33.084Z,45.28
2019-04-20T02:58:05.140Z,44.35
2019-04-20T02:58:41.924Z,47.93
2019-04-20T02:59:44.638Z,50.43
2019-04-20T02:59:56.271Z,47.83
2019-04-20T03:00:25.456Z,46.25
2019-04-20T03:00:55.121Z,41.77
2019-04-20T03:01:29.455Z,42.62
2019-04-20T03:01:59.107Z,41.55
2019-04-20T03:02:31.282Z,40.10
2019-04-20T03:03:07.082Z,41.80
2019-04-20T03:03:35.959Z,45.08
2019-04-20T03:04:04.897Z,43.50
2019-04-20T03:04:45.239Z,49.98
2019-04-20T03:05:23.693Z,48.15
2019-04-20T03:06:06.161Z,47.83
2019-04-20T03:06:32.892Z,43.85
2019-04-20T03:07:12.793Z,48.10
2019-04-20T03:07:54.446Z,43.58
2019-04-20T03:08:22.342Z,47.35
2019-04-20T03:09:04.801Z,43.78
2019-04-20T03:09:36.756Z,46.18
2019-04-20T03:10:12.455Z,40.40
2019-04-20T03:10:52.475Z,47.10
2019-04-20T03:11:29.407Z,41.42
2019-04-20T03:13:01.346Z,47.67
2019-04-20T03:13:08.012Z,48.13
2019-04-20T03:13:41.950Z,51.80
2019-04-20T03:14:14.901Z,44.45
2019-04-20T03:14:47.790Z,45.78
2019-04-20T03:15:33.855Z,46.53
2019-04-20T03:16:08.786Z,46.25
2019-04-20T03:16:35.694Z,43.05
2019-04-20T03:17:17.729Z,43.65
2019-04-20T03:17:50.800Z,43.90
2019-04-20T03:18:27.751Z,47.60
2019-04-20T03:18:54.640Z,45.78
2019-04-20T03:19:29.973Z,50.10
2019-04-20T03:20:03.328Z,41.85
2019-04-20T03:20:47.808Z,40.08
2019-04-20T03:21:24.764Z,39.95
2019-04-20T03:21:58.301Z,43.80
2019-04-20T03:22:39.553Z,42.93
2019-04-20T03:23:26.124Z,45.50
2019-04-20T03:23:48.067Z,39.42
2019-04-20T03:24:20.513Z,41.25
2019-04-20T03:24:54.457Z,44.30
2019-04-20T03:25:53.465Z,45.58
2019-04-20T03:26:21.165Z,37.80
2019-04-20T03:26:56.625Z,41.73
2019-04-20T03:27:30.601Z,40.20
2019-04-20T03:28:10.814Z,36.98
2019-04-20T03:28:42.901Z,40.40
2019-04-20T03:29:24.545Z,41.10
2019-04-20T03:30:22.856Z,38.28
2019-04-20T03:31:41.637Z,41.95
2019-04-20T03:32:25.254Z,44.50
2019-04-20T03:33:09.591Z,42.80
2019-04-20T03:34:13.282Z,40.85
2019-04-20T03:35:05.175Z,40.43
2019-04-20T03:35:35.447Z,45.17
2019-04-20T03:36:19.868Z,43.58
2019-04-20T03:36:55.061Z,42.90
2019-04-20T03:37:28.014Z,41.95
2019-04-20T03:38:01.326Z,41.35
2019-04-20T03:38:29.907Z,40.88
2019-04-20T03:39:05.451Z,45.40
2019-04-20T03:39:36.158Z,43.17
2019-04-20T03:40:11.250Z,42.50
2019-04-20T03:40:45.384Z,42.98
2019-04-20T03:41:16.205Z,40.17
2019-04-20T03:41:46.338Z,43.85
2019-04-20T03:42:15.918Z,51.10
2019-04-20T03:42:50.624Z,47.83
2019-04-20T03:43:24.907Z,43.00
2019-04-20T03:44:03.168Z,46.88
2019-04-20T03:44:35.847Z,47.13
2019-04-20T03:45:13.174Z,46.48
2019-04-20T03:45:51.831Z,47.38
2019-04-20T03:46:25.772Z,43.20
2019-04-20T03:46:59.669Z,50.35
2019-04-20T03:47:40.353Z,43.05
2019-04-20T03:48:16.124Z,45.38
2019-04-20T03:48:54.853Z,44.88
2019-04-20T03:49:40.896Z,42.00
2019-04-20T03:50:10.521Z,43.13
2019-04-20T03:50:46.790Z,40.40
2019-04-20T03:51:26.899Z,41.00
2019-04-20T03:51:58.777Z,40.60
2019-04-20T03:52:36.549Z,39.15
2019-04-20T03:53:19.570Z,41.70
2019-04-20T03:54:11.659Z,42.13
2019-04-20T03:54:55.355Z,41.33
2019-04-20T03:55:50.165Z,42.88
2019-04-20T03:56:34.409Z,38.88
2019-04-20T03:57:17.010Z,41.68
2019-04-20T03:57:51.467Z,46.18
2019-04-20T03:58:24.264Z,41.30
2019-04-20T03:59:04.668Z,41.33
2019-04-20T03:59:51.130Z,35.65
2019-04-20T04:00:39.678Z,34.53
2019-04-20T04:01:19.838Z,42.73
2019-04-20T04:02:17.367Z,46.02
2019-04-20T04:02:52.788Z,37.70
2019-04-20T04:03:37.953Z,38.58
2019-04-20T04:04:05.359Z,40.00
2019-04-20T04:04:54.797Z,41.50
2019-04-20T04:05:31.054Z,39.33
2019-04-20T04:06:15.906Z,40.50
2019-04-20T04:06:47.062Z,36.40
2019-04-20T04:07:26.873Z,39.00
2019-04-20T04:08:02.980Z,44.08
2019-04-20T04:08:34.469Z,39.60
2019-04-20T04:09:13.622Z,41.20
2019-04-20T04:09:53.767Z,43.08
2019-04-20T04:10:27.314Z,39.18
2019-04-20T04:11:04.801Z,45.33
2019-04-20T04:11:38.115Z,41.85
2019-04-20T04:12:25.378Z,43.65
2019-04-20T04:13:11.775Z,37.03
2019-04-20T04:13:45.979Z,39.92
2019-04-20T04:14:19.857Z,47.23
2019-04-20T04:14:53.681Z,46.55
2019-04-20T04:15:27.551Z,42.90
2019-04-20T04:16:04.901Z,42.73
2019-04-20T04:16:42.924Z,38.02
2019-04-20T04:17:15.251Z,47.55
2019-04-20T04:17:47.981Z,40.45
2019-04-20T04:18:29.140Z,40.73
2019-04-20T04:19:07.542Z,42.60
2019-04-20T04:19:35.162Z,41.10
2019-04-20T04:20:12.769Z,39.55
2019-04-20T04:20:47.613Z,43.25
2019-04-20T04:21:27.080Z,44.70
2019-04-20T04:22:03.964Z,45.90
2019-04-20T04:22:43.769Z,45.98
2019-04-20T04:23:19.078Z,47.20
2019-04-20T04:23:56.071Z,42.58
2019-04-20T04:24:23.536Z,47.93
2019-04-20T04:25:03.714Z,44.42
2019-04-20T04:25:32.521Z,46.80
2019-04-20T04:26:15.055Z,46.05
2019-04-20T04:26:47.422Z,45.88
2019-04-20T04:27:28.540Z,48.40
2019-04-20T04:28:03.857Z,45.35
2019-04-20T04:28:35.255Z,44.40
2019-04-20T04:29:13.568Z,47.23
2019-04-20T04:29:47.066Z,43.68
2019-04-20T04:30:19.205Z,48.92
2019-04-20T04:31:00.033Z,44.45
2019-04-20T04:31:33.174Z,46.25
2019-04-20T04:32:15.780Z,39.65
2019-04-20T04:33:10.534Z,46.30
2019-04-20T04:33:44.501Z,47.98
2019-04-20T04:34:12.497Z,47.43
2019-04-20T04:34:28.783Z,47.83
2019-04-20T04:35:01.664Z,44.65
2019-04-20T04:35:30.204Z,49.55
2019-04-20T04:36:10.434Z,43.68
2019-04-20T04:36:50.740Z,46.02
2019-04-20T04:37:26.677Z,47.60
2019-04-20T04:37:58.840Z,42.08
2019-04-20T04:38:37.425Z,42.60
2019-04-20T04:39:26.314Z,47.20
2019-04-20T04:39:46.953Z,51.83
2019-04-20T04:40:25.326Z,46.98
2019-04-20T04:41:01.880Z,53.80
2019-04-20T04:41:27.049Z,55.67
2019-04-20T04:42:10.224Z,56.65
2019-04-20T04:42:42.668Z,51.98
2019-04-20T04:43:16.056Z,49.58
2019-04-20T04:43:51.080Z,53.60
2019-04-20T04:44:20.207Z,60.98
2019-04-20T04:44:50.611Z,51.75
2019-04-20T04:45:18.895Z,55.58
2019-04-20T04:45:51.405Z,48.98
2019-04-20T04:46:25.114Z,47.80
2019-04-20T04:47:02.789Z,55.83
2019-04-20T04:47:34.594Z,64.82
2019-04-20T04:48:14.734Z,57.75
2019-04-20T04:48:46.591Z,65.95
2019-04-20T04:49:26.691Z,65.55
2019-04-20T04:50:02.415Z,65.78
2019-04-20T04:50:31.477Z,68.17
2019-04-20T04:51:13.151Z,67.27
2019-04-20T04:51:49.195Z,68.52
2019-04-20T04:52:19.154Z,74.80
2019-04-20T04:52:58.797Z,69.03
2019-04-20T04:53:36.718Z,63.52
2019-04-20T04:54:10.197Z,63.02
2019-04-20T04:54:44.491Z,58.95
2019-04-20T04:55:22.175Z,50.45
2019-04-20T04:55:53.825Z,54.10
2019-04-20T04:56:23.141Z,52.08
2019-04-20T04:56:54.869Z,56.42
2019-04-20T04:57:28.564Z,53.68
2019-04-20T04:58:02.347Z,52.85
2019-04-20T04:58:36.286Z,45.75
2019-04-20T04:59:10.689Z,46.33
2019-04-20T04:59:44.583Z,49.00
2019-04-20T05:00:25.519Z,50.52
2019-04-20T05:01:01.341Z,56.33
2019-04-20T05:01:30.933Z,54.33
2019-04-20T05:02:03.538Z,54.13
2019-04-20T05:02:43.287Z,48.00
2019-04-20T05:03:26.712Z,46.37
2019-04-20T05:04:14.760Z,50.23
2019-04-20T05:04:49.848Z,51.13
2019-04-20T05:05:35.810Z,45.83
2019-04-20T05:06:20.890Z,48.40
2019-04-20T05:06:56.947Z,51.58
2019-04-20T05:07:26.700Z,46.95
2019-04-20T05:07:59.462Z,62.95
2019-04-20T05:08:33.819Z,63.45
2019-04-20T05:09:02.343Z,71.22
2019-04-20T05:09:34.241Z,80.85
2019-04-20T05:10:07.903Z,84.97
2019-04-20T05:10:41.640Z,95.30
2019-04-20T05:11:15.321Z,91.53
2019-04-20T05:11:56.101Z,75.15
2019-04-20T05:12:28.857Z,91.90
2019-04-20T05:13:01.145Z,105.30
2019-04-20T05:13:43.922Z,106.37
2019-04-20T05:14:17.016Z,106.15
2019-04-20T05:17:45.238Z,52.23
2019-04-20T05:18:20.550Z,50.28
2019-04-20T05:18:59.180Z,44.73
2019-04-20T05:19:29.847Z,39.58
2019-04-20T05:20:07.784Z,33.88
2019-04-20T05:20:41.720Z,26.37
2019-04-20T05:21:17.625Z,17.92
2019-04-20T05:22:01.164Z,18.12
2019-04-20T05:22:32.109Z,18.85
2019-04-20T05:23:21.097Z,28.50
2019-04-20T05:24:00.652Z,18.25
2019-04-20T05:24:33.817Z,17.65
2019-04-20T05:25:22.595Z,21.30
2019-04-20T05:26:01.886Z,27.93
2019-04-20T05:26:46.715Z,42.53
2019-04-20T05:27:56.349Z,14.30
2019-04-20T05:28:27.889Z,17.95
2019-04-20T05:29:02.535Z,15.30
2019-04-20T05:29:31.918Z,16.32
2019-04-20T05:30:03.633Z,18.67
2019-04-20T05:30:42.895Z,15.72
2019-04-20T05:31:15.004Z,15.50
2019-04-20T05:31:57.169Z,13.10
2019-04-20T05:32:35.831Z,15.70
2019-04-20T05:33:06.056Z,12.75
2019-04-20T05:34:03.639Z,12.82
2019-04-20T05:34:30.917Z,13.45
2019-04-20T05:35:10.930Z,18.70
2019-04-20T05:35:36.491Z,13.50
2019-04-20T05:36:13.878Z,19.17
2019-04-20T05:36:49.383Z,14.38
2019-04-20T05:37:33.268Z,14.30
2019-04-20T05:38:08.107Z,15.72
2019-04-20T05:38:43.198Z,13.85
2019-04-20T05:39:14.473Z,11.60
2019-04-20T05:39:44.459Z,13.98
2019-04-20T05:40:22.633Z,17.55
2019-04-20T05:40:59.947Z,16.90
2019-04-20T05:41:26.796Z,14.55
2019-04-20T05:42:03.387Z,13.35
2019-04-20T05:42:42.939Z,14.03
2019-04-20T05:43:33.118Z,16.77
2019-04-20T05:44:08.510Z,13.55
2019-04-20T05:44:49.922Z,14.83
2019-04-20T05:45:23.548Z,17.07
2019-04-20T05:45:51.592Z,12.85
2019-04-20T05:46:32.180Z,13.68
2019-04-20T05:47:15.834Z,14.85
2019-04-20T05:47:43.053Z,18.60
2019-04-20T05:48:16.473Z,17.27
2019-04-20T05:49:00.795Z,14.10
2019-04-20T05:49:31.738Z,14.00
2019-04-20T05:49:57.010Z,15.93
2019-04-20T05:50:36.486Z,14.28
2019-04-20T05:51:21.553Z,13.95
2019-04-20T05:51:47.628Z,14.98
2019-04-20T05:53:01.694Z,15.45
2019-04-20T05:53:38.466Z,15.43
2019-04-20T05:54:15.576Z,15.55
2019-04-20T05:54:44.674Z,17.45
2019-04-20T05:55:20.917Z,14.78
2019-04-20T05:55:55.458Z,13.08
2019-04-20T05:56:35.483Z,14.87
2019-04-20T05:57:15.592Z,18.37
2019-04-20T05:57:49.057Z,14.47
2019-04-20T05:58:16.463Z,12.93
2019-04-20T05:58:53.836Z,12.13
2019-04-20T05:59:19.173Z,14.55
2019-04-20T06:00:08.348Z,18.98
2019-04-20T06:00:40.606Z,12.53
2019-04-20T06:01:13.565Z,16.55
2019-04-20T06:01:53.291Z,13.72
2019-04-20T06:02:26.264Z,15.28
2019-04-20T06:02:53.958Z,14.23
2019-04-20T06:03:28.983Z,18.75
2019-04-20T06:04:03.001Z,15.90
2019-04-20T06:04:58.784Z,21.93
2019-04-20T06:05:16.010Z,20.65
2019-04-20T06:06:00.895Z,21.33
2019-04-20T06:06:27.619Z,15.40
2019-04-20T06:06:59.609Z,18.42
2019-04-20T06:07:35.968Z,20.57
2019-04-20T06:08:25.011Z,17.37
2019-04-20T06:08:56.641Z,16.35
2019-04-20T06:09:39.675Z,22.40
2019-04-20T06:10:00.247Z,80.55
2019-04-20T06:10:38.350Z,50.28
2019-04-20T06:11:07.971Z,26.65
2019-04-20T06:12:01.374Z,16.05
2019-04-20T06:12:19.957Z,17.77
2019-04-20T06:12:53.150Z,18.67
2019-04-20T06:13:22.910Z,19.30
2019-04-20T06:14:12.587Z,19.05
2019-04-20T06:15:00.163Z,20.60
2019-04-20T06:15:51.344Z,21.90
2019-04-20T06:16:33.535Z,20.02
2019-04-20T06:17:11.214Z,25.85
2019-04-20T06:18:03.891Z,17.17
2019-04-20T06:18:58.217Z,18.57
2019-04-20T06:19:36.959Z,18.15
2019-04-20T06:20:05.237Z,20.00
2019-04-20T06:20:41.255Z,18.25
2019-04-20T06:21:27.748Z,15.40
2019-04-20T06:21:57.705Z,18.20
2019-04-20T06:22:42.776Z,19.20
2019-04-20T06:23:42.297Z,16.15
2019-04-20T06:24:17.164Z,14.83
2019-04-20T06:25:14.517Z,13.13
2019-04-20T06:25:54.856Z,15.55
2019-04-20T06:26:59.488Z,13.25
2019-04-20T06:27:35.267Z,15.48
2019-04-20T06:28:06.575Z,14.07
2019-04-20T06:28:40.060Z,13.88
2019-04-20T06:29:16.981Z,20.43
2019-04-20T06:29:54.420Z,15.32
2019-04-20T06:30:25.233Z,13.28
2019-04-20T06:30:56.827Z,13.65
2019-04-20T06:31:37.033Z,14.60
2019-04-20T06:32:23.362Z,13.95
2019-04-20T06:34:27.983Z,11.97
2019-04-20T06:34:46.485Z,14.03
2019-04-20T06:35:44.601Z,11.65
2019-04-20T06:36:38.590Z,13.83
2019-04-20T06:37:02.860Z,12.88
2019-04-20T06:37:53.774Z,19.00
2019-04-20T06:38:46.848Z,12.65
2019-04-20T06:40:29.563Z,13.70
2019-04-20T06:40:55.237Z,13.35
2019-04-20T06:41:31.794Z,18.70
2019-04-20T06:42:23.455Z,10.38
2019-04-20T06:43:05.216Z,16.55
2019-04-20T06:43:48.853Z,14.78
2019-04-20T06:44:24.836Z,13.30
2019-04-20T06:44:48.388Z,15.00
2019-04-20T06:45:36.356Z,15.83
2019-04-20T06:46:09.813Z,11.38
2019-04-20T06:46:43.177Z,11.97
2019-04-20T06:47:15.479Z,9.75
2019-04-20T06:47:51.820Z,13.90
2019-04-20T06:48:29.390Z,10.35
2019-04-20T06:49:05.662Z,10.30
2019-04-20T06:49:35.540Z,13.90
2019-04-20T06:50:07.161Z,12.33
2019-04-20T06:50:44.257Z,17.92
2019-04-20T06:51:27.669Z,14.58
2019-04-20T06:52:10.116Z,9.80
2019-04-20T06:53:01.554Z,14.85
2019-04-20T06:53:43.627Z,21.77
2019-04-20T06:54:20.024Z,13.08
2019-04-20T06:55:07.065Z,12.45
2019-04-20T06:55:52.938Z,9.38
2019-04-20T06:56:27.600Z,12.95
2019-04-20T06:56:59.721Z,13.20
2019-04-20T06:57:49.902Z,15.43
2019-04-20T06:58:27.759Z,11.20
2019-04-20T06:58:53.764Z,12.43
2019-04-20T06:59:27.710Z,12.73
2019-04-20T07:00:01.016Z,10.88
2019-04-20T07:00:36.864Z,11.22
2019-04-20T07:01:09.318Z,9.85
2019-04-20T07:01:48.477Z,11.78
2019-04-20T07:02:28.388Z,10.58
2019-04-20T07:03:05.816Z,10.63
2019-04-20T07:03:42.276Z,14.43
2019-04-20T07:05:26.974Z,9.88
2019-04-20T07:06:01.911Z,15.78
2019-04-20T07:06:43.924Z,13.72
2019-04-20T07:07:02.382Z,12.73
2019-04-20T07:07:32.193Z,14.58
2019-04-20T07:08:28.864Z,15.65
2019-04-20T07:09:23.485Z,13.98
2019-04-20T07:10:08.815Z,11.00
2019-04-20T07:10:34.687Z,12.23
2019-04-20T07:11:11.186Z,16.42
2019-04-20T07:11:44.364Z,13.43
2019-04-20T07:12:13.111Z,12.70
2019-04-20T07:12:46.649Z,10.93
2019-04-20T07:13:19.310Z,8.85
2019-04-20T07:13:50.541Z,14.18
2019-04-20T07:14:31.890Z,11.83
2019-04-20T07:15:01.353Z,13.68
2019-04-20T07:15:47.450Z,12.40
2019-04-20T07:16:30.541Z,11.53
2019-04-20T07:17:10.851Z,9.25
2019-04-20T07:17:55.119Z,9.30
2019-04-20T07:18:31.382Z,13.83
2019-04-20T07:19:17.557Z,24.47
2019-04-20T07:19:44.437Z,14.45
2019-04-20T07:20:39.696Z,9.25
2019-04-20T07:21:12.645Z,9.78
2019-04-20T07:22:01.929Z,8.23
2019-04-20T07:22:33.681Z,11.03
2019-04-20T07:23:20.210Z,8.53
2019-04-20T07:23:43.703Z,12.03
2019-04-20T07:24:20.970Z,50.03
2019-04-20T07:25:32.069Z,12.03
2019-04-20T07:26:12.812Z,11.30
2019-04-20T07:26:41.666Z,16.12
2019-04-20T07:27:17.005Z,10.13
2019-04-20T07:27:48.995Z,8.88
2019-04-20T07:28:27.766Z,12.53
2019-04-20T07:28:59.005Z,10.40
2019-04-20T07:29:35.220Z,8.48
2019-04-20T07:30:10.715Z,9.90
2019-04-20T07:30:45.123Z,12.55
2019-04-20T07:31:19.069Z,11.75
2019-04-20T07:31:48.765Z,14.70
2019-04-20T07:32:26.009Z,10.43
2019-04-20T07:33:10.458Z,11.50
2019-04-20T07:33:39.406Z,12.85
2019-04-20T07:34:15.741Z,11.80
2019-04-20T07:34:51.281Z,11.95
2019-04-20T07:35:24.770Z,14.95
2019-04-20T07:35:56.248Z,14.83
2019-04-20T07:36:40.532Z,11.50
2019-04-20T07:37:45.075Z,12.88
2019-04-20T07:38:15.354Z,13.15
2019-04-20T07:38:44.646Z,9.60
2019-04-20T07:39:03.979Z,12.60
2019-04-20T07:39:33.166Z,15.72
2019-04-20T07:40:13.539Z,8.38
2019-04-20T07:40:42.859Z,9.88
2019-04-20T07:41:28.216Z,14.58
2019-04-20T07:42:00.649Z,11.53
2019-04-20T07:42:36.239Z,21.00
2019-04-20T07:43:04.705Z,15.43
2019-04-20T07:43:57.508Z,11.75
2019-04-20T07:44:20.017Z,14.85
2019-04-20T07:44:56.235Z,9.30
2019-04-20T07:46:04.319Z,11.80
2019-04-20T07:46:52.486Z,14.07
2019-04-20T07:47:13.723Z,14.33
2019-04-20T07:48:07.798Z,12.23
2019-04-20T07:48:21.002Z,12.23
2019-04-20T07:49:01.413Z,14.47
2019-04-20T07:49:29.258Z,14.03
2019-04-20T07:50:04.956Z,16.17
2019-04-20T07:50:37.578Z,12.35
2019-04-20T07:51:06.890Z,28.50
2019-04-20T07:51:37.518Z,12.10
2019-04-20T07:52:08.150Z,13.03
2019-04-20T07:52:51.454Z,13.00
2019-04-20T07:53:35.281Z,11.30
2019-04-20T07:54:23.311Z,15.25
2019-04-20T07:55:03.594Z,11.88
2019-04-20T07:55:44.277Z,13.50
2019-04-20T07:55:58.146Z,18.12
2019-04-20T07:56:37.540Z,13.22
2019-04-20T07:57:09.986Z,10.80
2019-04-20T07:57:39.206Z,11.63
2019-04-20T07:58:12.204Z,11.65
2019-04-20T07:58:44.228Z,12.13
2019-04-20T07:59:22.433Z,13.98
2019-04-20T08:00:08.119Z,10.95
2019-04-20T08:00:50.472Z,12.55
2019-04-20T08:01:31.685Z,10.15
2019-04-20T08:02:26.805Z,12.55
2019-04-20T08:03:18.546Z,15.93
2019-04-20T08:03:55.727Z,12.03
2019-04-20T08:04:33.500Z,9.80
2019-04-20T08:05:04.416Z,16.12
2019-04-20T08:05:40.642Z,11.53
2019-04-20T08:06:26.400Z,11.53